sensor_id;sensor_type;location;lat;lon;timestamp;P1;durP1;ratioP1;P2;durP2;ratioP2
22470;SDS011;11402;51.374;6.594;2023-07-28T00:01:34;0.00;;;0.00;;
22470;SDS011;11402;51.374;6.594;2023-07-28T00:04:00;0.00;;;0.00;;
22470;SDS011;11402;51.374;6.594;2023-07-28T00:06:27;0.00;;;0.00;;
22470;SDS011;11402;51.374;6.594;2023-07-28T00:08:53;0.00;;;0.00;;
22470;SDS011;11402;51.374;6.594;2023-07-28T00:11:18;0.00;;;0.00;;
22470;SDS011;11402;51.374;6.594;2023-07-28T00:13:44;0.00;;;0.00;;
22470;SDS011;11402;51.374;6.594;2023-07-28T00:16:09;0.00;;;0.00;;
22470;SDS011;11402;51.374;6.594;2023-07-28T00:18:35;0.00;;;0.00;;
22470;SDS011;11402;51.374;6.594;2023-07-28T00:21:01;0.00;;;0.00;;
22470;SDS011;11402;51.374;6.594;2023-07-28T00:23:29;0.00;;;0.00;;
22470;SDS011;11402;51.374;6.594;2023-07-28T00:25:55;0.00;;;0.00;;
22470;SDS011;11402;51.374;6.594;2023-07-28T00:28:20;0.00;;;0.00;;
22470;SDS011;11402;51.374;6.594;2023-07-28T00:30:49;0.00;;;0.00;;
22470;SDS011;11402;51.374;6.594;2023-07-28T00:33:15;0.00;;;0.00;;
22470;SDS011;11402;51.374;6.594;2023-07-28T00:35:41;0.00;;;0.00;;
22470;SDS011;11402;51.374;6.594;2023-07-28T00:38:06;0.00;;;0.00;;
22470;SDS011;11402;51.374;6.594;2023-07-28T00:40:34;0.00;;;0.00;;
22470;SDS011;11402;51.374;6.594;2023-07-28T00:43:00;0.00;;;0.00;;
22470;SDS011;11402;51.374;6.594;2023-07-28T00:45:26;0.00;;;0.00;;
22470;SDS011;11402;51.374;6.594;2023-07-28T00:47:52;0.00;;;0.00;;
22470;SDS011;11402;51.374;6.594;2023-07-28T00:50:18;0.00;;;0.00;;
22470;SDS011;11402;51.374;6.594;2023-07-28T00:52:44;0.00;;;0.00;;
22470;SDS011;11402;51.374;6.594;2023-07-28T00:55:11;0.00;;;0.00;;
22470;SDS011;11402;51.374;6.594;2023-07-28T00:57:37;0.00;;;0.00;;
22470;SDS011;11402;51.374;6.594;2023-07-28T01:00:04;0.00;;;0.00;;
22470;SDS011;11402;51.374;6.594;2023-07-28T01:02:30;0.00;;;0.00;;
22470;SDS011;11402;51.374;6.594;2023-07-28T01:04:56;0.00;;;0.00;;
22470;SDS011;11402;51.374;6.594;2023-07-28T01:12:57;0.00;;;0.00;;
22470;SDS011;11402;51.374;6.594;2023-07-28T01:15:23;0.00;;;0.00;;
22470;SDS011;11402;51.374;6.594;2023-07-28T01:17:49;0.00;;;0.00;;
22470;SDS011;11402;51.374;6.594;2023-07-28T01:20:15;0.00;;;0.00;;
22470;SDS011;11402;51.374;6.594;2023-07-28T01:28:35;0.00;;;0.00;;
22470;SDS011;11402;51.374;6.594;2023-07-28T01:31:03;0.00;;;0.00;;
22470;SDS011;11402;51.374;6.594;2023-07-28T01:33:31;0.00;;;0.00;;
22470;SDS011;11402;51.374;6.594;2023-07-28T01:35:57;0.00;;;0.00;;
22470;SDS011;11402;51.374;6.594;2023-07-28T01:38:29;0.00;;;0.00;;
22470;SDS011;11402;51.374;6.594;2023-07-28T01:40:55;0.00;;;0.00;;
22470;SDS011;11402;51.374;6.594;2023-07-28T01:43:20;0.00;;;0.00;;
22470;SDS011;11402;51.374;6.594;2023-07-28T01:45:46;0.00;;;0.00;;
22470;SDS011;11402;51.374;6.594;2023-07-28T01:48:12;0.00;;;0.00;;
22470;SDS011;11402;51.374;6.594;2023-07-28T01:50:38;0.00;;;0.00;;
22470;SDS011;11402;51.374;6.594;2023-07-28T01:53:04;0.00;;;0.00;;
22470;SDS011;11402;51.374;6.594;2023-07-28T01:55:30;0.00;;;0.00;;
22470;SDS011;11402;51.374;6.594;2023-07-28T01:57:57;0.00;;;0.00;;
22470;SDS011;11402;51.374;6.594;2023-07-28T02:00:24;0.00;;;0.00;;
22470;SDS011;11402;51.374;6.594;2023-07-28T02:02:50;0.00;;;0.00;;
22470;SDS011;11402;51.374;6.594;2023-07-28T02:05:16;0.00;;;0.00;;
22470;SDS011;11402;51.374;6.594;2023-07-28T02:07:42;0.00;;;0.00;;
22470;SDS011;11402;51.374;6.594;2023-07-28T02:10:08;0.00;;;0.00;;
22470;SDS011;11402;51.374;6.594;2023-07-28T02:12:35;0.00;;;0.00;;
22470;SDS011;11402;51.374;6.594;2023-07-28T02:15:05;0.00;;;0.00;;
22470;SDS011;11402;51.374;6.594;2023-07-28T02:17:31;0.00;;;0.00;;
22470;SDS011;11402;51.374;6.594;2023-07-28T02:19:57;0.00;;;0.00;;
22470;SDS011;11402;51.374;6.594;2023-07-28T02:22:22;0.00;;;0.00;;
22470;SDS011;11402;51.374;6.594;2023-07-28T02:24:48;0.00;;;0.00;;
22470;SDS011;11402;51.374;6.594;2023-07-28T02:27:13;0.00;;;0.00;;
22470;SDS011;11402;51.374;6.594;2023-07-28T02:29:39;0.00;;;0.00;;
22470;SDS011;11402;51.374;6.594;2023-07-28T02:32:05;0.00;;;0.00;;
22470;SDS011;11402;51.374;6.594;2023-07-28T02:34:31;0.00;;;0.00;;
22470;SDS011;11402;51.374;6.594;2023-07-28T02:36:57;0.00;;;0.00;;
22470;SDS011;11402;51.374;6.594;2023-07-28T02:39:22;0.00;;;0.00;;
22470;SDS011;11402;51.374;6.594;2023-07-28T02:41:48;0.00;;;0.00;;
22470;SDS011;11402;51.374;6.594;2023-07-28T02:44:13;0.00;;;0.00;;
22470;SDS011;11402;51.374;6.594;2023-07-28T02:46:39;0.00;;;0.00;;
22470;SDS011;11402;51.374;6.594;2023-07-28T02:49:05;0.00;;;0.00;;
22470;SDS011;11402;51.374;6.594;2023-07-28T02:51:30;0.00;;;0.00;;
22470;SDS011;11402;51.374;6.594;2023-07-28T02:53:56;0.00;;;0.00;;
22470;SDS011;11402;51.374;6.594;2023-07-28T02:56:21;0.00;;;0.00;;
22470;SDS011;11402;51.374;6.594;2023-07-28T02:58:48;0.00;;;0.00;;
22470;SDS011;11402;51.374;6.594;2023-07-28T03:01:14;0.00;;;0.00;;
22470;SDS011;11402;51.374;6.594;2023-07-28T03:03:39;0.00;;;0.00;;
22470;SDS011;11402;51.374;6.594;2023-07-28T03:06:05;0.00;;;0.00;;
22470;SDS011;11402;51.374;6.594;2023-07-28T03:08:31;0.00;;;0.00;;
22470;SDS011;11402;51.374;6.594;2023-07-28T03:10:57;0.00;;;0.00;;
22470;SDS011;11402;51.374;6.594;2023-07-28T03:13:23;0.00;;;0.00;;
22470;SDS011;11402;51.374;6.594;2023-07-28T03:15:49;0.00;;;0.00;;
22470;SDS011;11402;51.374;6.594;2023-07-28T03:18:14;0.00;;;0.00;;
22470;SDS011;11402;51.374;6.594;2023-07-28T03:20:40;0.00;;;0.00;;
22470;SDS011;11402;51.374;6.594;2023-07-28T03:23:06;0.00;;;0.00;;
22470;SDS011;11402;51.374;6.594;2023-07-28T03:25:32;0.00;;;0.00;;
22470;SDS011;11402;51.374;6.594;2023-07-28T03:27:58;0.00;;;0.00;;
22470;SDS011;11402;51.374;6.594;2023-07-28T03:30:23;0.00;;;0.00;;
22470;SDS011;11402;51.374;6.594;2023-07-28T03:32:49;0.00;;;0.00;;
22470;SDS011;11402;51.374;6.594;2023-07-28T03:35:14;0.00;;;0.00;;
22470;SDS011;11402;51.374;6.594;2023-07-28T03:37:40;0.00;;;0.00;;
22470;SDS011;11402;51.374;6.594;2023-07-28T03:40:06;0.00;;;0.00;;
22470;SDS011;11402;51.374;6.594;2023-07-28T03:42:32;0.00;;;0.00;;
22470;SDS011;11402;51.374;6.594;2023-07-28T03:44:57;0.00;;;0.00;;
22470;SDS011;11402;51.374;6.594;2023-07-28T03:47:23;0.00;;;0.00;;
22470;SDS011;11402;51.374;6.594;2023-07-28T03:49:49;0.00;;;0.00;;
22470;SDS011;11402;51.374;6.594;2023-07-28T03:52:14;0.00;;;0.00;;
22470;SDS011;11402;51.374;6.594;2023-07-28T03:54:40;0.00;;;0.00;;
22470;SDS011;11402;51.374;6.594;2023-07-28T03:57:06;0.00;;;0.00;;
22470;SDS011;11402;51.374;6.594;2023-07-28T03:59:31;0.00;;;0.00;;
22470;SDS011;11402;51.374;6.594;2023-07-28T04:01:57;0.00;;;0.00;;
22470;SDS011;11402;51.374;6.594;2023-07-28T04:04:23;0.00;;;0.00;;
22470;SDS011;11402;51.374;6.594;2023-07-28T04:06:49;0.00;;;0.00;;
22470;SDS011;11402;51.374;6.594;2023-07-28T04:09:20;0.00;;;0.00;;
22470;SDS011;11402;51.374;6.594;2023-07-28T04:11:46;0.00;;;0.00;;
22470;SDS011;11402;51.374;6.594;2023-07-28T04:14:12;0.00;;;0.00;;
22470;SDS011;11402;51.374;6.594;2023-07-28T04:16:39;0.00;;;0.00;;
22470;SDS011;11402;51.374;6.594;2023-07-28T04:19:05;0.00;;;0.00;;
22470;SDS011;11402;51.374;6.594;2023-07-28T04:21:31;0.00;;;0.00;;
22470;SDS011;11402;51.374;6.594;2023-07-28T04:23:56;0.00;;;0.00;;
22470;SDS011;11402;51.374;6.594;2023-07-28T04:26:23;0.00;;;0.00;;
22470;SDS011;11402;51.374;6.594;2023-07-28T04:28:49;0.00;;;0.00;;
22470;SDS011;11402;51.374;6.594;2023-07-28T04:31:15;0.00;;;0.00;;
22470;SDS011;11402;51.374;6.594;2023-07-28T04:33:41;0.00;;;0.00;;
22470;SDS011;11402;51.374;6.594;2023-07-28T04:36:07;0.00;;;0.00;;
22470;SDS011;11402;51.374;6.594;2023-07-28T04:38:33;0.00;;;0.00;;
22470;SDS011;11402;51.374;6.594;2023-07-28T04:40:58;0.00;;;0.00;;
22470;SDS011;11402;51.374;6.594;2023-07-28T04:43:24;0.00;;;0.00;;
22470;SDS011;11402;51.374;6.594;2023-07-28T04:45:49;0.00;;;0.00;;
22470;SDS011;11402;51.374;6.594;2023-07-28T04:48:15;0.00;;;0.00;;
22470;SDS011;11402;51.374;6.594;2023-07-28T04:50:41;0.00;;;0.00;;
22470;SDS011;11402;51.374;6.594;2023-07-28T04:53:06;0.00;;;0.00;;
22470;SDS011;11402;51.374;6.594;2023-07-28T04:55:32;0.00;;;0.00;;
22470;SDS011;11402;51.374;6.594;2023-07-28T04:57:57;0.00;;;0.00;;
22470;SDS011;11402;51.374;6.594;2023-07-28T05:00:23;0.00;;;0.00;;
22470;SDS011;11402;51.374;6.594;2023-07-28T05:02:49;0.00;;;0.00;;
22470;SDS011;11402;51.374;6.594;2023-07-28T05:05:14;0.00;;;0.00;;
22470;SDS011;11402;51.374;6.594;2023-07-28T05:07:40;0.00;;;0.00;;
22470;SDS011;11402;51.374;6.594;2023-07-28T05:10:06;0.00;;;0.00;;
22470;SDS011;11402;51.374;6.594;2023-07-28T05:12:33;0.00;;;0.00;;
22470;SDS011;11402;51.374;6.594;2023-07-28T05:14:58;0.00;;;0.00;;
22470;SDS011;11402;51.374;6.594;2023-07-28T05:17:24;0.00;;;0.00;;
22470;SDS011;11402;51.374;6.594;2023-07-28T05:19:50;0.00;;;0.00;;
22470;SDS011;11402;51.374;6.594;2023-07-28T05:22:16;0.00;;;0.00;;
22470;SDS011;11402;51.374;6.594;2023-07-28T05:24:41;0.00;;;0.00;;
22470;SDS011;11402;51.374;6.594;2023-07-28T05:27:08;0.00;;;0.00;;
22470;SDS011;11402;51.374;6.594;2023-07-28T05:29:34;0.00;;;0.00;;
22470;SDS011;11402;51.374;6.594;2023-07-28T05:32:00;0.00;;;0.00;;
22470;SDS011;11402;51.374;6.594;2023-07-28T05:34:26;0.00;;;0.00;;
22470;SDS011;11402;51.374;6.594;2023-07-28T05:36:51;0.00;;;0.00;;
22470;SDS011;11402;51.374;6.594;2023-07-28T05:39:17;0.00;;;0.00;;
22470;SDS011;11402;51.374;6.594;2023-07-28T05:41:42;0.00;;;0.00;;
22470;SDS011;11402;51.374;6.594;2023-07-28T05:44:08;0.00;;;0.00;;
22470;SDS011;11402;51.374;6.594;2023-07-28T05:46:33;0.00;;;0.00;;
22470;SDS011;11402;51.374;6.594;2023-07-28T05:48:59;0.00;;;0.00;;
22470;SDS011;11402;51.374;6.594;2023-07-28T05:51:25;0.00;;;0.00;;
22470;SDS011;11402;51.374;6.594;2023-07-28T05:53:50;0.00;;;0.00;;
22470;SDS011;11402;51.374;6.594;2023-07-28T05:56:16;0.00;;;0.00;;
22470;SDS011;11402;51.374;6.594;2023-07-28T05:58:43;0.00;;;0.00;;
22470;SDS011;11402;51.374;6.594;2023-07-28T06:01:10;0.00;;;0.00;;
22470;SDS011;11402;51.374;6.594;2023-07-28T06:03:35;0.00;;;0.00;;
22470;SDS011;11402;51.374;6.594;2023-07-28T06:06:01;0.00;;;0.00;;
22470;SDS011;11402;51.374;6.594;2023-07-28T06:08:27;0.00;;;0.00;;
22470;SDS011;11402;51.374;6.594;2023-07-28T06:10:53;0.00;;;0.00;;
22470;SDS011;11402;51.374;6.594;2023-07-28T06:13:19;0.00;;;0.00;;
22470;SDS011;11402;51.374;6.594;2023-07-28T06:15:44;0.00;;;0.00;;
22470;SDS011;11402;51.374;6.594;2023-07-28T06:18:10;0.00;;;0.00;;
22470;SDS011;11402;51.374;6.594;2023-07-28T06:20:36;0.00;;;0.00;;
22470;SDS011;11402;51.374;6.594;2023-07-28T06:23:02;0.00;;;0.00;;
22470;SDS011;11402;51.374;6.594;2023-07-28T06:25:27;0.00;;;0.00;;
22470;SDS011;11402;51.374;6.594;2023-07-28T06:27:53;0.00;;;0.00;;
22470;SDS011;11402;51.374;6.594;2023-07-28T06:30:18;0.00;;;0.00;;
22470;SDS011;11402;51.374;6.594;2023-07-28T06:32:44;0.00;;;0.00;;
22470;SDS011;11402;51.374;6.594;2023-07-28T06:35:10;0.00;;;0.00;;
22470;SDS011;11402;51.374;6.594;2023-07-28T06:37:35;0.00;;;0.00;;
22470;SDS011;11402;51.374;6.594;2023-07-28T06:40:03;0.00;;;0.00;;
22470;SDS011;11402;51.374;6.594;2023-07-28T06:42:30;0.00;;;0.00;;
22470;SDS011;11402;51.374;6.594;2023-07-28T06:44:58;0.00;;;0.00;;
22470;SDS011;11402;51.374;6.594;2023-07-28T06:47:23;0.00;;;0.00;;
22470;SDS011;11402;51.374;6.594;2023-07-28T06:49:49;0.00;;;0.00;;
22470;SDS011;11402;51.374;6.594;2023-07-28T06:52:14;0.00;;;0.00;;
22470;SDS011;11402;51.374;6.594;2023-07-28T06:54:40;0.00;;;0.00;;
22470;SDS011;11402;51.374;6.594;2023-07-28T06:57:05;0.00;;;0.00;;
22470;SDS011;11402;51.374;6.594;2023-07-28T06:59:31;0.00;;;0.00;;
22470;SDS011;11402;51.374;6.594;2023-07-28T07:01:57;0.00;;;0.00;;
22470;SDS011;11402;51.374;6.594;2023-07-28T07:04:23;0.00;;;0.00;;
22470;SDS011;11402;51.374;6.594;2023-07-28T07:06:48;0.00;;;0.00;;
22470;SDS011;11402;51.374;6.594;2023-07-28T07:09:14;0.00;;;0.00;;
22470;SDS011;11402;51.374;6.594;2023-07-28T07:11:40;0.00;;;0.00;;
22470;SDS011;11402;51.374;6.594;2023-07-28T07:14:06;0.00;;;0.00;;
22470;SDS011;11402;51.374;6.594;2023-07-28T07:16:32;0.00;;;0.00;;
22470;SDS011;11402;51.374;6.594;2023-07-28T07:18:59;0.00;;;0.00;;
22470;SDS011;11402;51.374;6.594;2023-07-28T07:21:24;0.00;;;0.00;;
22470;SDS011;11402;51.374;6.594;2023-07-28T07:23:51;2.28;;;2.10;;
22470;SDS011;11402;51.374;6.594;2023-07-28T07:26:16;5.97;;;5.38;;
22470;SDS011;11402;51.374;6.594;2023-07-28T07:28:42;0.00;;;0.00;;
22470;SDS011;11402;51.374;6.594;2023-07-28T07:31:12;0.00;;;0.00;;
22470;SDS011;11402;51.374;6.594;2023-07-28T07:33:38;0.00;;;0.00;;
22470;SDS011;11402;51.374;6.594;2023-07-28T07:36:04;0.00;;;0.00;;
22470;SDS011;11402;51.374;6.594;2023-07-28T07:38:30;0.00;;;0.00;;
22470;SDS011;11402;51.374;6.594;2023-07-28T07:40:55;0.00;;;0.00;;
22470;SDS011;11402;51.374;6.594;2023-07-28T07:43:21;0.00;;;0.00;;
22470;SDS011;11402;51.374;6.594;2023-07-28T07:45:46;0.00;;;0.00;;
22470;SDS011;11402;51.374;6.594;2023-07-28T07:48:15;0.00;;;0.00;;
22470;SDS011;11402;51.374;6.594;2023-07-28T07:50:40;0.00;;;0.00;;
22470;SDS011;11402;51.374;6.594;2023-07-28T07:53:06;0.00;;;0.00;;
22470;SDS011;11402;51.374;6.594;2023-07-28T07:55:31;0.00;;;0.00;;
22470;SDS011;11402;51.374;6.594;2023-07-28T07:57:57;0.00;;;0.00;;
22470;SDS011;11402;51.374;6.594;2023-07-28T08:00:23;0.00;;;0.00;;
22470;SDS011;11402;51.374;6.594;2023-07-28T08:02:49;0.00;;;0.00;;
22470;SDS011;11402;51.374;6.594;2023-07-28T08:05:15;0.00;;;0.00;;
22470;SDS011;11402;51.374;6.594;2023-07-28T08:07:40;0.00;;;0.00;;
22470;SDS011;11402;51.374;6.594;2023-07-28T08:10:07;0.00;;;0.00;;
22470;SDS011;11402;51.374;6.594;2023-07-28T08:12:32;0.00;;;0.00;;
22470;SDS011;11402;51.374;6.594;2023-07-28T08:14:58;0.00;;;0.00;;
22470;SDS011;11402;51.374;6.594;2023-07-28T08:17:24;0.00;;;0.00;;
22470;SDS011;11402;51.374;6.594;2023-07-28T08:19:49;0.00;;;0.00;;
22470;SDS011;11402;51.374;6.594;2023-07-28T08:22:15;0.00;;;0.00;;
22470;SDS011;11402;51.374;6.594;2023-07-28T08:24:41;0.00;;;0.00;;
22470;SDS011;11402;51.374;6.594;2023-07-28T08:27:06;0.00;;;0.00;;
22470;SDS011;11402;51.374;6.594;2023-07-28T08:29:32;0.00;;;0.00;;
22470;SDS011;11402;51.374;6.594;2023-07-28T08:31:57;0.00;;;0.00;;
22470;SDS011;11402;51.374;6.594;2023-07-28T08:34:23;0.00;;;0.00;;
22470;SDS011;11402;51.374;6.594;2023-07-28T08:36:49;0.00;;;0.00;;
22470;SDS011;11402;51.374;6.594;2023-07-28T08:39:14;0.00;;;0.00;;
22470;SDS011;11402;51.374;6.594;2023-07-28T08:41:40;0.00;;;0.00;;
22470;SDS011;11402;51.374;6.594;2023-07-28T08:44:07;0.00;;;0.00;;
22470;SDS011;11402;51.374;6.594;2023-07-28T08:46:32;0.00;;;0.00;;
22470;SDS011;11402;51.374;6.594;2023-07-28T08:48:59;0.00;;;0.00;;
22470;SDS011;11402;51.374;6.594;2023-07-28T08:51:26;0.00;;;0.00;;
22470;SDS011;11402;51.374;6.594;2023-07-28T08:53:51;0.00;;;0.00;;
22470;SDS011;11402;51.374;6.594;2023-07-28T08:56:17;0.00;;;0.00;;
22470;SDS011;11402;51.374;6.594;2023-07-28T08:58:44;0.00;;;0.00;;
22470;SDS011;11402;51.374;6.594;2023-07-28T09:01:10;0.00;;;0.00;;
22470;SDS011;11402;51.374;6.594;2023-07-28T09:03:39;0.00;;;0.00;;
22470;SDS011;11402;51.374;6.594;2023-07-28T09:06:06;0.00;;;0.00;;
22470;SDS011;11402;51.374;6.594;2023-07-28T09:08:36;0.00;;;0.00;;
22470;SDS011;11402;51.374;6.594;2023-07-28T09:11:03;0.00;;;0.00;;
22470;SDS011;11402;51.374;6.594;2023-07-28T09:13:38;0.00;;;0.00;;
22470;SDS011;11402;51.374;6.594;2023-07-28T09:16:15;0.00;;;0.00;;
22470;SDS011;11402;51.374;6.594;2023-07-28T09:18:43;0.00;;;0.00;;
22470;SDS011;11402;51.374;6.594;2023-07-28T09:21:15;0.00;;;0.00;;
22470;SDS011;11402;51.374;6.594;2023-07-28T09:23:42;0.00;;;0.00;;
22470;SDS011;11402;51.374;6.594;2023-07-28T09:26:08;0.00;;;0.00;;
22470;SDS011;11402;51.374;6.594;2023-07-28T09:28:38;0.00;;;0.00;;
22470;SDS011;11402;51.374;6.594;2023-07-28T09:31:04;0.00;;;0.00;;
22470;SDS011;11402;51.374;6.594;2023-07-28T09:33:31;0.00;;;0.00;;
22470;SDS011;11402;51.374;6.594;2023-07-28T09:36:06;0.00;;;0.00;;
22470;SDS011;11402;51.374;6.594;2023-07-28T09:38:40;0.00;;;0.00;;
22470;SDS011;11402;51.374;6.594;2023-07-28T09:41:07;1.65;;;1.20;;
22470;SDS011;11402;51.374;6.594;2023-07-28T09:43:38;2.33;;;1.40;;
22470;SDS011;11402;51.374;6.594;2023-07-28T09:46:09;4.78;;;2.92;;
22470;SDS011;11402;51.374;6.594;2023-07-28T09:48:37;4.50;;;3.38;;
22470;SDS011;11402;51.374;6.594;2023-07-28T09:51:05;5.97;;;3.55;;
22470;SDS011;11402;51.374;6.594;2023-07-28T09:53:35;4.72;;;3.78;;
22470;SDS011;11402;51.374;6.594;2023-07-28T09:56:08;4.93;;;3.70;;
22470;SDS011;11402;51.374;6.594;2023-07-28T09:58:34;4.18;;;3.40;;
22470;SDS011;11402;51.374;6.594;2023-07-28T10:01:03;7.13;;;3.70;;
22470;SDS011;11402;51.374;6.594;2023-07-28T10:03:31;5.47;;;3.38;;
22470;SDS011;11402;51.374;6.594;2023-07-28T10:05:57;6.50;;;4.25;;
22470;SDS011;11402;51.374;6.594;2023-07-28T10:08:24;4.82;;;4.20;;
22470;SDS011;11402;51.374;6.594;2023-07-28T10:10:50;3.60;;;3.20;;
22470;SDS011;11402;51.374;6.594;2023-07-28T10:13:21;5.10;;;3.83;;
22470;SDS011;11402;51.374;6.594;2023-07-28T10:15:47;4.60;;;2.08;;
22470;SDS011;11402;51.374;6.594;2023-07-28T10:18:13;0.00;;;0.00;;
22470;SDS011;11402;51.374;6.594;2023-07-28T10:20:40;0.00;;;0.00;;
22470;SDS011;11402;51.374;6.594;2023-07-28T10:23:15;0.00;;;0.00;;
22470;SDS011;11402;51.374;6.594;2023-07-28T10:25:55;0.00;;;0.00;;
22470;SDS011;11402;51.374;6.594;2023-07-28T10:28:27;0.00;;;0.00;;
22470;SDS011;11402;51.374;6.594;2023-07-28T10:31:03;0.00;;;0.00;;
22470;SDS011;11402;51.374;6.594;2023-07-28T10:33:34;0.00;;;0.00;;
22470;SDS011;11402;51.374;6.594;2023-07-28T10:36:14;0.00;;;0.00;;
22470;SDS011;11402;51.374;6.594;2023-07-28T10:38:42;0.00;;;0.00;;
22470;SDS011;11402;51.374;6.594;2023-07-28T10:41:15;0.00;;;0.00;;
22470;SDS011;11402;51.374;6.594;2023-07-28T10:43:43;0.00;;;0.00;;
22470;SDS011;11402;51.374;6.594;2023-07-28T10:46:10;0.00;;;0.00;;
22470;SDS011;11402;51.374;6.594;2023-07-28T10:48:44;0.00;;;0.00;;
22470;SDS011;11402;51.374;6.594;2023-07-28T10:51:11;0.00;;;0.00;;
22470;SDS011;11402;51.374;6.594;2023-07-28T10:53:44;0.00;;;0.00;;
22470;SDS011;11402;51.374;6.594;2023-07-28T10:56:10;0.00;;;0.00;;
22470;SDS011;11402;51.374;6.594;2023-07-28T10:58:36;0.00;;;0.00;;
22470;SDS011;11402;51.374;6.594;2023-07-28T11:01:02;0.00;;;0.00;;
22470;SDS011;11402;51.374;6.594;2023-07-28T11:03:28;0.00;;;0.00;;
22470;SDS011;11402;51.374;6.594;2023-07-28T11:05:54;0.00;;;0.00;;
22470;SDS011;11402;51.374;6.594;2023-07-28T11:08:21;0.00;;;0.00;;
22470;SDS011;11402;51.374;6.594;2023-07-28T11:10:47;0.00;;;0.00;;
22470;SDS011;11402;51.374;6.594;2023-07-28T11:13:13;0.00;;;0.00;;
22470;SDS011;11402;51.374;6.594;2023-07-28T11:15:38;0.00;;;0.00;;
22470;SDS011;11402;51.374;6.594;2023-07-28T11:18:04;0.00;;;0.00;;
22470;SDS011;11402;51.374;6.594;2023-07-28T11:20:30;0.00;;;0.00;;
22470;SDS011;11402;51.374;6.594;2023-07-28T11:22:59;0.00;;;0.00;;
22470;SDS011;11402;51.374;6.594;2023-07-28T11:25:28;0.00;;;0.00;;
22470;SDS011;11402;51.374;6.594;2023-07-28T11:27:55;0.00;;;0.00;;
22470;SDS011;11402;51.374;6.594;2023-07-28T11:30:21;0.00;;;0.00;;
22470;SDS011;11402;51.374;6.594;2023-07-28T11:32:49;0.00;;;0.00;;
22470;SDS011;11402;51.374;6.594;2023-07-28T11:35:17;0.00;;;0.00;;
22470;SDS011;11402;51.374;6.594;2023-07-28T11:37:48;0.00;;;0.00;;
22470;SDS011;11402;51.374;6.594;2023-07-28T11:40:16;0.00;;;0.00;;
22470;SDS011;11402;51.374;6.594;2023-07-28T11:45:13;0.00;;;0.00;;
22470;SDS011;11402;51.374;6.594;2023-07-28T11:48:29;0.00;;;0.00;;
22470;SDS011;11402;51.374;6.594;2023-07-28T11:50:40;0.00;;;0.00;;
22470;SDS011;11402;51.374;6.594;2023-07-28T11:53:07;0.00;;;0.00;;
22470;SDS011;11402;51.374;6.594;2023-07-28T11:55:37;0.00;;;0.00;;
22470;SDS011;11402;51.374;6.594;2023-07-28T11:58:07;0.00;;;0.00;;
22470;SDS011;11402;51.374;6.594;2023-07-28T12:00:36;0.00;;;0.00;;
22470;SDS011;11402;51.374;6.594;2023-07-28T12:03:08;0.00;;;0.00;;
22470;SDS011;11402;51.374;6.594;2023-07-28T12:05:35;0.00;;;0.00;;
22470;SDS011;11402;51.374;6.594;2023-07-28T12:08:02;0.00;;;0.00;;
22470;SDS011;11402;51.374;6.594;2023-07-28T12:10:28;0.00;;;0.00;;
22470;SDS011;11402;51.374;6.594;2023-07-28T12:12:56;0.00;;;0.00;;
22470;SDS011;11402;51.374;6.594;2023-07-28T12:15:28;0.00;;;0.00;;
22470;SDS011;11402;51.374;6.594;2023-07-28T12:18:06;0.00;;;0.00;;
22470;SDS011;11402;51.374;6.594;2023-07-28T12:23:03;0.00;;;0.00;;
22470;SDS011;11402;51.374;6.594;2023-07-28T12:25:29;0.00;;;0.00;;
22470;SDS011;11402;51.374;6.594;2023-07-28T12:27:55;0.00;;;0.00;;
22470;SDS011;11402;51.374;6.594;2023-07-28T12:30:21;0.00;;;0.00;;
22470;SDS011;11402;51.374;6.594;2023-07-28T12:32:47;0.00;;;0.00;;
22470;SDS011;11402;51.374;6.594;2023-07-28T12:35:13;0.00;;;0.00;;
22470;SDS011;11402;51.374;6.594;2023-07-28T12:37:38;0.00;;;0.00;;
22470;SDS011;11402;51.374;6.594;2023-07-28T12:40:04;0.00;;;0.00;;
22470;SDS011;11402;51.374;6.594;2023-07-28T12:42:31;0.00;;;0.00;;
22470;SDS011;11402;51.374;6.594;2023-07-28T12:44:57;0.00;;;0.00;;
22470;SDS011;11402;51.374;6.594;2023-07-28T12:47:22;0.00;;;0.00;;
22470;SDS011;11402;51.374;6.594;2023-07-28T12:49:48;0.00;;;0.00;;
22470;SDS011;11402;51.374;6.594;2023-07-28T12:52:14;0.00;;;0.00;;
22470;SDS011;11402;51.374;6.594;2023-07-28T12:54:40;0.00;;;0.00;;
22470;SDS011;11402;51.374;6.594;2023-07-28T12:57:07;0.00;;;0.00;;
22470;SDS011;11402;51.374;6.594;2023-07-28T12:59:35;0.00;;;0.00;;
22470;SDS011;11402;51.374;6.594;2023-07-28T13:02:01;0.00;;;0.00;;
22470;SDS011;11402;51.374;6.594;2023-07-28T13:04:27;0.00;;;0.00;;
22470;SDS011;11402;51.374;6.594;2023-07-28T13:06:53;2.55;;;0.80;;
22470;SDS011;11402;51.374;6.594;2023-07-28T13:09:19;1.40;;;0.90;;
22470;SDS011;11402;51.374;6.594;2023-07-28T13:11:44;1.98;;;0.65;;
22470;SDS011;11402;51.374;6.594;2023-07-28T13:14:10;1.50;;;1.00;;
22470;SDS011;11402;51.374;6.594;2023-07-28T13:16:35;1.42;;;0.80;;
22470;SDS011;11402;51.374;6.594;2023-07-28T13:19:03;3.63;;;0.70;;
22470;SDS011;11402;51.374;6.594;2023-07-28T13:21:31;0.68;;;0.60;;
22470;SDS011;11402;51.374;6.594;2023-07-28T13:23:58;1.20;;;1.10;;
22470;SDS011;11402;51.374;6.594;2023-07-28T13:26:24;1.92;;;1.10;;
22470;SDS011;11402;51.374;6.594;2023-07-28T13:28:50;0.93;;;0.80;;
22470;SDS011;11402;51.374;6.594;2023-07-28T13:31:16;1.48;;;0.73;;
22470;SDS011;11402;51.374;6.594;2023-07-28T13:33:42;1.02;;;0.80;;
22470;SDS011;11402;51.374;6.594;2023-07-28T13:36:08;1.27;;;0.95;;
22470;SDS011;11402;51.374;6.594;2023-07-28T13:38:34;1.63;;;0.80;;
22470;SDS011;11402;51.374;6.594;2023-07-28T13:41:00;2.83;;;0.98;;
22470;SDS011;11402;51.374;6.594;2023-07-28T13:43:26;1.52;;;0.90;;
22470;SDS011;11402;51.374;6.594;2023-07-28T13:45:55;0.80;;;0.80;;
22470;SDS011;11402;51.374;6.594;2023-07-28T13:48:21;1.00;;;0.73;;
22470;SDS011;11402;51.374;6.594;2023-07-28T13:50:46;3.85;;;1.33;;
22470;SDS011;11402;51.374;6.594;2023-07-28T13:53:12;1.08;;;0.90;;
22470;SDS011;11402;51.374;6.594;2023-07-28T13:55:37;1.40;;;0.90;;
22470;SDS011;11402;51.374;6.594;2023-07-28T13:58:03;0.80;;;0.80;;
22470;SDS011;11402;51.374;6.594;2023-07-28T14:00:29;2.25;;;0.82;;
22470;SDS011;11402;51.374;6.594;2023-07-28T14:02:55;0.98;;;0.90;;
22470;SDS011;11402;51.374;6.594;2023-07-28T14:05:23;1.88;;;0.73;;
22470;SDS011;11402;51.374;6.594;2023-07-28T14:07:48;2.72;;;0.82;;
22470;SDS011;11402;51.374;6.594;2023-07-28T14:10:14;1.20;;;0.77;;
22470;SDS011;11402;51.374;6.594;2023-07-28T14:12:39;1.52;;;0.75;;
22470;SDS011;11402;51.374;6.594;2023-07-28T14:15:05;0.80;;;0.70;;
22470;SDS011;11402;51.374;6.594;2023-07-28T14:17:32;1.30;;;0.80;;
22470;SDS011;11402;51.374;6.594;2023-07-28T14:19:58;0.75;;;0.73;;
22470;SDS011;11402;51.374;6.594;2023-07-28T14:22:23;1.45;;;0.70;;
22470;SDS011;11402;51.374;6.594;2023-07-28T14:24:49;3.33;;;1.00;;
22470;SDS011;11402;51.374;6.594;2023-07-28T14:27:15;1.75;;;0.70;;
22470;SDS011;11402;51.374;6.594;2023-07-28T14:29:41;0.88;;;0.85;;
22470;SDS011;11402;51.374;6.594;2023-07-28T14:32:06;1.02;;;0.80;;
22470;SDS011;11402;51.374;6.594;2023-07-28T14:34:33;2.08;;;0.90;;
22470;SDS011;11402;51.374;6.594;2023-07-28T14:37:00;2.95;;;0.95;;
22470;SDS011;11402;51.374;6.594;2023-07-28T14:39:29;1.05;;;0.82;;
22470;SDS011;11402;51.374;6.594;2023-07-28T14:41:55;1.08;;;0.75;;
22470;SDS011;11402;51.374;6.594;2023-07-28T14:44:21;2.50;;;1.23;;
22470;SDS011;11402;51.374;6.594;2023-07-28T14:46:47;0.95;;;0.77;;
22470;SDS011;11402;51.374;6.594;2023-07-28T14:49:12;0.90;;;0.85;;
22470;SDS011;11402;51.374;6.594;2023-07-28T14:51:38;1.25;;;1.00;;
22470;SDS011;11402;51.374;6.594;2023-07-28T14:54:03;2.72;;;0.90;;
22470;SDS011;11402;51.374;6.594;2023-07-28T14:56:29;1.30;;;1.10;;
22470;SDS011;11402;51.374;6.594;2023-07-28T14:58:55;0.98;;;0.90;;
22470;SDS011;11402;51.374;6.594;2023-07-28T15:01:21;1.40;;;0.70;;